Latest Weather Observations for Middle Point

IDD60801

Issued at 5:31 pm CST Sunday 26 April 2015 (issued every 30 minutes, with the page automatically refreshed every 10 minutes)

About weather observations | Map of weather stations | Latest weather observations for NT | Other Formats
Station Details ID: 014041 Name: MIDDLE POINT Lat: -12.61 Lon: 131.30 Height: 14.1 m
Data from the previous 72 hours. | See also: Recent months at Middle Point
Date/Time
CST
Temp
°C
App
Temp
°C
Dew
Point
Rel
Hum
%
Delta-T
°C
Wind Press
QNH
hPa
Press
MSL
hPa
Rain
since 9 am
mm
Dir
 
Spd
km/h
Gust
km/h
Spd
kts
Gust
kts
26/05:30pm 30.8 30.2 12.2 32 10.9 E 7 9 4 5 1010.6 1010.5 0.0
26/05:00pm 31.8 30.4 11.0 28 12.1 E 9 15 5 8 1010.3 1010.2 0.0
26/04:30pm 32.4 30.5 10.4 26 12.7 E 11 20 6 11 1010.2 1010.1 0.0
26/04:00pm 32.4 30.6 11.0 27 12.4 ESE 11 19 6 10 1010.3 1010.2 0.0
26/03:30pm 32.3 30.5 10.9 27 12.4 ESE 11 17 6 9 1010.4 1010.3 0.0
26/03:00pm 32.5 30.2 11.6 28 12.3 E 15 22 8 12 1010.7 1010.6 0.0
26/02:30pm 32.2 30.2 10.3 26 12.6 ESE 11 20 6 11 1011.0 1010.8 0.0
26/02:00pm 32.3 29.6 10.4 26 12.6 ESE 15 20 8 11 1011.3 1011.1 0.0
26/01:30pm 32.4 29.5 11.0 27 12.4 ESE 17 24 9 13 1011.5 1011.3 0.0
26/01:00pm 31.3 28.7 10.6 28 11.9 ESE 15 22 8 12 1012.0 1011.8 0.0
26/12:30pm 31.4 28.7 11.7 29 11.5 ESE 17 28 9 15 1012.5 1012.3 0.0
26/12:00pm 31.0 28.9 13.7 34 10.4 ESE 17 28 9 15 1013.0 1012.8 0.0
26/11:30am 29.9 27.4 13.6 36 9.8 SE 19 26 10 14 1013.5 1013.3 0.0
26/11:00am 29.6 27.5 15.3 41 8.8 ESE 20 28 11 15 1014.0 1013.9 0.0
26/10:30am 29.1 26.5 14.9 42 8.6 ESE 22 30 12 16 1014.0 1013.9 0.0
26/10:00am 28.3 26.7 15.9 47 7.6 SE 19 26 10 14 1014.0 1013.9 0.0
26/09:30am 26.8 25.1 15.8 51 6.7 SE 19 32 10 17 1013.8 1013.7 0.0
26/09:00am 24.7 24.3 16.2 59 5.2 SE 13 17 7 9 1013.6 1013.5 0.0
26/08:30am 22.4 22.6 15.7 66 4.0 SSE 9 13 5 7 1013.4 1013.2 0.0
26/08:00am 21.2 21.7 16.6 75 2.8 S 9 11 5 6 1013.1 1012.9 0.0
26/07:30am 20.2 21.6 17.4 84 1.7 S 6 9 3 5 1012.9 1012.7 0.0
26/07:00am 19.6 20.3 17.0 85 1.6 SSE 9 15 5 8 1012.3 1012.1 0.0
26/06:30am 19.1 20.6 16.7 86 1.4 SSW 4 6 2 3 1011.9 1011.7 0.0
26/06:00am 19.2 19.7 16.6 85 1.6 S 9 13 5 7 1011.7 1011.5 0.0
26/05:30am 18.9 21.3 16.9 88 1.2 CALM 0 0 0 0 1011.3 1011.1 0.0
26/05:00am 18.9 20.9 17.0 89 1.1 SE 2 6 1 3 1011.4 1011.2 0.0
26/04:30am 19.4 20.9 18.1 92 0.8 SSE 7 11 4 6 1011.4 1011.2 0.0
26/04:00am 19.8 22.1 18.6 93 0.7 SSE 4 6 2 3 1011.3 1011.1 0.0
26/03:30am 19.6 22.6 18.4 93 0.7 CALM 0 0 0 0 1011.3 1011.1 0.0
26/03:00am 19.6 21.4 18.4 93 0.7 NE 6 9 3 5 1011.3 1011.1 0.0
26/02:30am 20.6 24.0 19.4 93 0.8 CALM 0 0 0 0 1011.2 1011.0 0.0
26/02:00am 20.3 23.6 19.0 92 0.8 CALM 0 6 0 3 1011.3 1011.1 0.0
26/01:30am 20.7 24.1 19.4 92 0.8 CALM 0 0 0 0 1011.6 1011.4 0.0
26/01:00am 21.1 24.7 19.7 92 0.9 CALM 0 0 0 0 1011.9 1011.7 0.0
26/12:30am 21.5 25.2 20.0 91 1.0 CALM 0 0 0 0 1011.9 1011.7 0.0
26/12:00am 21.8 25.3 20.4 92 0.9 SW 2 4 1 2 1011.8 1011.6 0.0
 
Date/Time
CST
Temp
°C
App
Temp
°C
Dew
Point
Rel
Hum
%
Delta-T
°C
Wind Press
QNH
hPa
Press
MSL
hPa
Rain
since 9 am
mm
Dir
 
Spd
km/h
Gust
km/h
Spd
kts
Gust
kts
25/11:30pm 22.4 26.6 21.0 92 0.9 CALM 0 4 0 2 1011.9 1011.7 0.0
25/11:00pm 22.6 26.1 21.1 91 1.0 SSW 4 6 2 3 1012.0 1011.8 0.0
25/10:30pm 22.3 25.1 20.4 89 1.2 SSW 6 7 3 4 1012.1 1011.9 0.0
25/10:00pm 23.1 26.3 21.2 89 1.2 S 6 7 3 4 1012.0 1011.8 0.0
25/09:30pm 23.3 26.3 20.8 86 1.6 SSE 6 6 3 3 1011.8 1011.6 0.0
25/09:00pm 24.1 28.5 21.4 85 1.8 CALM 0 0 0 0 1011.7 1011.5 0.0
25/08:30pm 23.7 27.4 21.4 87 1.5 NW 4 9 2 5 1011.3 1011.1 0.0
25/08:00pm 24.5 28.4 21.2 82 2.2 N 2 4 1 2 1010.7 1010.6 0.0
25/07:30pm 26.1 29.2 21.1 74 3.3 NNE 6 6 3 3 1010.0 1009.9 0.0
25/07:00pm 26.5 29.6 21.0 72 3.6 N 6 7 3 4 1009.8 1009.7 0.0
25/06:30pm 27.9 30.4 21.0 66 4.6 N 9 11 5 6 1009.5 1009.4 0.0
25/06:00pm 29.9 31.9 20.7 57 6.1 N 11 15 6 8 1009.0 1008.9 0.0
25/05:30pm 31.2 32.8 20.8 54 7.0 NNE 13 17 7 9 1008.7 1008.6 0.0
25/05:00pm 31.9 33.8 21.4 53 7.1 N 13 19 7 10 1008.2 1008.1 0.0
25/04:30pm 32.7 34.0 20.2 47 8.3 NNE 13 17 7 9 1008.1 1008.0 0.0
25/04:00pm 34.0 34.7 15.5 33 11.6 E 6 11 3 6 1007.9 1007.8 0.0
25/03:30pm 33.9 34.7 17.2 37 10.7 NE 9 15 5 8 1007.9 1007.8 0.0
25/03:00pm 34.2 34.5 16.1 34 11.4 ENE 9 13 5 7 1008.3 1008.2 0.0
25/02:30pm 33.6 33.6 15.1 33 11.5 E 9 15 5 8 1008.6 1008.5 0.0
25/02:00pm 33.0 33.6 15.9 35 10.7 ENE 7 17 4 9 1008.9 1008.8 0.0
25/01:30pm 33.6 34.3 16.0 34 11.1 ESE 7 13 4 7 1009.2 1009.1 0.0
25/01:00pm 33.1 34.0 16.5 37 10.5 E 7 13 4 7 1009.6 1009.5 0.0
25/12:30pm 33.4 33.6 16.7 36 10.6 SE 11 19 6 10 1010.0 1009.9 0.0
25/12:00pm 32.8 34.4 18.2 42 9.5 SE 7 15 4 8 1010.2 1010.1 0.0
25/11:30am 32.3 33.8 18.8 44 8.8 E 9 15 5 8 1010.7 1010.6 0.0
25/11:00am 30.6 32.6 19.9 52 7.0 ENE 9 19 5 10 1011.2 1011.0 0.0
25/10:30am 30.8 34.3 22.1 59 5.9 E 7 13 4 7 1011.4 1011.2 0.0
25/10:00am 29.9 33.2 22.6 65 5.0 ENE 9 15 5 8 1011.5 1011.3 0.0
25/09:30am 28.9 33.3 23.8 74 3.5 E 7 13 4 7 1011.6 1011.4 0.0
25/09:00am 27.3 31.9 24.2 83 2.1 ESE 7 9 4 5 1011.3 1011.1 0.0
25/08:30am 25.9 30.5 24.1 90 1.2 ESE 7 9 4 5 1011.3 1011.1 0.0
25/08:00am 24.3 28.4 23.3 94 0.7 SSE 7 9 4 5 1011.0 1010.8 0.0
25/07:30am 22.8 27.0 21.8 94 0.7 N 2 4 1 2 1010.6 1010.5 0.0
25/07:00am 21.3 25.0 19.9 92 0.9 CALM 0 0 0 0 1010.2 1010.1 0.0
25/06:30am 21.5 25.3 20.1 92 0.9 CALM 0 0 0 0 1009.8 1009.7 0.0
25/06:00am 21.3 24.9 19.8 91 1.0 CALM 0 0 0 0 1009.5 1009.4 0.0
25/05:30am 22.1 26.2 20.7 92 0.9 CALM 0 0 0 0 1009.4 1009.3 0.0
25/05:00am 21.9 25.9 20.5 92 0.9 CALM 0 0 0 0 1009.5 1009.4 0.0
25/04:30am 22.1 25.9 20.2 89 1.2 CALM 0 0 0 0 1009.7 1009.6 0.0
25/04:00am 22.8 27.2 21.3 91 1.0 CALM 0 4 0 2 1009.6 1009.5 0.0
25/03:30am 22.9 26.5 21.2 90 1.1 N 4 6 2 3 1009.8 1009.7 0.0
25/03:00am 23.8 27.8 22.1 90 1.1 NE 4 4 2 2 1009.7 1009.6 0.0
25/02:30am 23.9 27.6 22.2 90 1.1 NNE 6 7 3 4 1009.6 1009.5 0.0
25/02:00am 25.3 29.7 22.8 86 1.7 S 4 6 2 3 1009.7 1009.6 0.0
25/01:30am 25.5 29.3 22.4 83 2.1 S 6 7 3 4 1009.9 1009.8 0.0
25/01:00am 25.9 29.9 22.8 83 2.1 SSW 6 7 3 4 1010.2 1010.1 0.0
25/12:30am 25.7 29.8 23.2 86 1.7 SW 7 7 4 4 1010.3 1010.2 0.0
25/12:00am 25.8 30.6 23.5 87 1.6 WSW 4 6 2 3 1010.5 1010.4 0.0
 
Date/Time
CST
Temp
°C
App
Temp
°C
Dew
Point
Rel
Hum
%
Delta-T
°C
Wind Press
QNH
hPa
Press
MSL
hPa
Rain
since 9 am
mm
Dir
 
Spd
km/h
Gust
km/h
Spd
kts
Gust
kts
24/11:30pm 25.8 30.3 23.7 88 1.4 SW 6 7 3 4 1010.9 1010.7 0.0
24/11:00pm 25.3 29.9 23.2 88 1.4 WSW 4 6 2 3 1011.0 1010.8 0.0
24/10:30pm 25.1 29.1 22.8 87 1.6 WSW 6 7 3 4 1011.1 1010.9 0.0
24/10:00pm 25.1 29.5 22.8 87 1.6 WSW 4 6 2 3 1011.3 1011.1 0.0
24/09:30pm 25.3 29.3 22.8 86 1.7 WSW 6 7 3 4 1011.2 1011.0 0.0
24/09:00pm 26.0 31.3 23.1 84 2.0 CALM 0 2 0 1 1010.9 1010.7 0.0
24/08:30pm 26.1 30.7 23.2 84 2.0 NW 4 4 2 2 1010.4 1010.3 0.0
24/08:00pm 26.6 30.9 23.3 82 2.3 NNW 6 7 3 4 1009.8 1009.7 0.0
24/07:30pm 27.2 31.4 23.4 80 2.6 N 7 9 4 5 1009.3 1009.2 0.0
24/07:00pm 28.1 31.9 23.5 76 3.2 N 9 13 5 7 1008.8 1008.7 0.0
24/06:30pm 29.3 32.5 23.0 69 4.3 N 11 15 6 8 1008.3 1008.2 0.0
24/06:00pm 30.7 33.3 22.6 62 5.5 N 13 17 7 9 1008.0 1007.9 0.0
24/05:30pm 33.3 35.8 19.0 42 9.4 NW 4 6 2 3 1007.7 1007.6 0.0
24/05:00pm 34.4 36.2 18.4 38 10.4 WNW 6 7 3 4 1007.4 1007.3 0.0
24/04:30pm 34.5 36.8 17.7 37 10.9 WSW 2 9 1 5 1007.3 1007.2 0.0
24/04:00pm 34.0 35.7 18.1 39 10.3 SE 6 11 3 6 1007.3 1007.2 0.0
24/03:30pm 33.8 35.1 17.1 37 10.7 SE 6 11 3 6 1007.5 1007.4 0.0
24/03:00pm 34.1 36.2 18.2 39 10.3 SSW 4 9 2 5 1007.6 1007.5 0.0
24/02:30pm 34.4 36.4 18.8 39 10.2 S 6 17 3 9 1008.0 1007.9 0.0
24/02:00pm 33.6 35.3 18.5 40 9.8 WSW 7 24 4 13 1008.3 1008.2 0.0
24/01:30pm 33.0 34.8 18.4 42 9.5 S 6 9 3 5 1008.6 1008.5 0.0
24/01:00pm 33.5 35.5 19.2 43 9.4 SE 7 17 4 9 1008.9 1008.8 0.0
24/12:30pm 33.0 34.5 18.0 41 9.7 SSE 7 13 4 7 1009.5 1009.4 0.0
24/12:00pm 32.3 33.6 17.0 40 9.7 NE 6 9 3 5 1010.0 1009.9 0.0
24/11:30am 32.1 32.3 14.3 34 10.9 SE 6 9 3 5 1010.4 1010.3 0.0
24/11:00am 30.9 32.2 17.2 43 8.7 E 6 9 3 5 1010.9 1010.7 0.0
24/10:30am 30.0 32.0 18.8 51 7.3 SE 6 9 3 5 1011.2 1011.0 0.0
24/10:00am 29.2 32.0 20.4 59 5.8 SSE 6 9 3 5 1011.3 1011.1 0.0
24/09:30am 28.7 30.7 19.9 59 5.8 S 9 13 5 7 1011.4 1011.2 0.0
24/09:00am 27.9 30.0 20.2 63 5.1 SSW 9 13 5 7 1011.3 1011.1 0.0
24/08:30am 26.6 30.3 22.2 77 3.0 SSW 6 11 3 6 1011.2 1011.0 0.0
24/08:00am 24.6 30.0 23.2 92 0.9 CALM 0 0 0 0 1010.9 1010.7 0.0
24/07:30am 22.4 26.7 21.2 93 0.8 CALM 0 0 0 0 1010.6 1010.5 0.0
24/07:00am 21.4 25.1 20.0 92 0.9 CALM 0 0 0 0 1010.3 1010.2 0.0
24/06:30am 21.8 25.7 20.4 92 0.9 CALM 0 0 0 0 1010.1 1010.0 0.0
24/06:00am 22.0 26.0 20.5 91 1.0 CALM 0 0 0 0 1010.1 1010.0 0.0
24/05:30am 22.0 26.0 20.5 91 1.0 CALM 0 0 0 0 1009.9 1009.8 0.0
24/05:00am 22.1 26.1 20.6 91 1.0 CALM 0 0 0 0 1009.8 1009.7 0.0
24/04:30am 22.1 26.2 20.7 92 0.9 CALM 0 0 0 0 1009.8 1009.7 0.0
24/04:00am 22.0 26.0 20.5 91 1.0 CALM 0 0 0 0 1009.6 1009.5 0.0
24/03:30am 22.4 26.5 20.7 90 1.1 CALM 0 0 0 0 1009.6 1009.5 0.0
24/03:00am 22.3 26.3 20.6 90 1.1 CALM 0 0 0 0 1009.6 1009.5 0.0
24/02:30am 22.8 27.0 20.9 89 1.2 CALM 0 0 0 0 1009.7 1009.6 0.0
24/02:00am 23.0 27.2 20.9 88 1.4 CALM 0 0 0 0 1009.8 1009.7 0.0
24/01:30am 23.1 27.3 21.0 88 1.4 CALM 0 0 0 0 1010.0 1009.9 0.0
24/01:00am 23.6 27.7 21.5 88 1.4 SSW 2 2 1 1 1010.3 1010.2 0.0
24/12:30am 23.6 28.0 21.3 87 1.5 CALM 0 0 0 0 1010.4 1010.3 0.0
24/12:00am 23.7 27.7 21.4 87 1.5 NNW 2 6 1 3 1010.4 1010.3 0.0
 
Date/Time
CST
Temp
°C
App
Temp
°C
Dew
Point
Rel
Hum
%
Delta-T
°C
Wind Press
QNH
hPa
Press
MSL
hPa
Rain
since 9 am
mm
Dir
 
Spd
km/h
Gust
km/h
Spd
kts
Gust
kts
23/11:30pm 24.2 28.4 21.7 86 1.7 WNW 2 4 1 2 1010.5 1010.4 0.0
23/11:00pm 24.5 28.4 21.8 85 1.8 WSW 4 6 2 3 1010.9 1010.7 0.0
23/10:30pm 24.7 27.7 22.0 85 1.8 SW 9 13 5 7 1011.2 1011.0 0.0
23/10:00pm 24.3 28.5 21.8 86 1.7 NW 2 6 1 3 1011.0 1010.8 0.0
23/09:30pm 24.8 28.5 22.3 86 1.7 NNW 6 6 3 3 1010.6 1010.5 0.0
23/09:00pm 24.8 28.3 21.9 84 1.9 N 6 6 3 3 1010.5 1010.4 0.0
23/08:30pm 25.4 28.9 21.9 81 2.3 N 6 7 3 4 1010.1 1010.0 0.0
23/08:00pm 25.6 28.9 21.9 80 2.5 NNE 7 9 4 5 1009.7 1009.6 0.0
23/07:30pm 26.1 29.5 22.0 78 2.7 N 7 9 4 5 1009.4 1009.3 0.0
23/07:00pm 27.0 30.0 22.0 74 3.4 N 9 9 5 5 1009.4 1009.3 0.0
23/06:30pm 28.3 31.1 21.6 67 4.5 N 9 11 5 6 1009.2 1009.1 0.0
23/06:00pm 30.3 33.0 21.4 59 6.0 N 9 13 5 7 1009.0 1008.9 0.0

Other Formats:

Comma delimited format used in spreadsheet applications
http://www.bom.gov.au/fwo/IDD60801/IDD60801.95121.axf

JavaScript Object Notation format (JSON) in row-major order
http://www.bom.gov.au/fwo/IDD60801/IDD60801.95121.json